Time;durP1;ratioP1;P1;durP2;ratioP2;P2;SDS_P1;SDS_P2;PMS_P1;PMS_P2;Temp;Humidity;BMP_temperature;BMP_pressure;BME280_temperature;BME280_humidity;BME280_pressure;Samples;Min_cycle;Max_cycle;Signal;HPM_P1;HPM_P2
2023/09/23 00:00:55;;;;;;;2.00;0.80;;;;;;;;;;4978699;28;20109;-84
2023/09/23 00:03:23;;;;;;;1.30;0.80;;;;;;;;;;4965160;28;20613;-84
2023/09/23 00:05:48;;;;;;;1.33;0.60;;;;;;;;;;4971618;28;20100;-84
2023/09/23 00:08:14;;;;;;;1.25;0.80;;;;;;;;;;4959062;28;20767;-77
2023/09/23 00:10:39;;;;;;;1.23;0.77;;;;;;;;;;4979545;28;20086;-76
2023/09/23 00:13:05;;;;;;;1.10;0.80;;;;;;;;;;4980068;28;20042;-80
2023/09/23 00:15:31;;;;;;;1.50;0.80;;;;;;;;;;4951452;28;20031;-76
2023/09/23 00:17:57;;;;;;;1.23;0.60;;;;;;;;;;4965275;28;20060;-76
2023/09/23 00:20:23;;;;;;;1.98;0.80;;;;;;;;;;4964270;28;20387;-77
2023/09/23 00:22:50;;;;;;;1.92;1.10;;;;;;;;;;4958750;28;20034;-77
2023/09/23 00:25:18;;;;;;;2.25;1.48;;;;;;;;;;4981861;28;20030;-77
2023/09/23 00:27:45;;;;;;;2.53;1.83;;;;;;;;;;4985547;28;20085;-77
2023/09/23 00:30:12;;;;;;;3.25;2.15;;;;;;;;;;4960316;28;20046;-75
2023/09/23 00:32:39;;;;;;;3.53;2.17;;;;;;;;;;4968140;28;20431;-82
2023/09/23 00:35:06;;;;;;;3.35;2.50;;;;;;;;;;4981882;28;20109;-80
2023/09/23 00:37:32;;;;;;;4.32;2.88;;;;;;;;;;4968892;28;20050;-81
2023/09/23 00:39:57;;;;;;;3.97;3.30;;;;;;;;;;4983586;28;20692;-84
2023/09/23 00:42:23;;;;;;;4.45;3.17;;;;;;;;;;4980715;28;20026;-84
2023/09/23 00:44:50;;;;;;;5.00;3.97;;;;;;;;;;4993300;28;20478;-82
2023/09/23 00:47:16;;;;;;;4.75;3.78;;;;;;;;;;4987045;28;20514;-80
2023/09/23 00:49:45;;;;;;;7.55;4.80;;;;;;;;;;4963888;28;20076;-83
2023/09/23 00:52:14;;;;;;;5.22;4.70;;;;;;;;;;4966812;28;20034;-84
2023/09/23 00:54:40;;;;;;;6.45;4.78;;;;;;;;;;4989301;28;20018;-83
2023/09/23 00:57:07;;;;;;;6.15;5.55;;;;;;;;;;4981570;28;20109;-83
2023/09/23 00:59:36;;;;;;;7.35;5.90;;;;;;;;;;4969022;28;20038;-84
2023/09/23 01:02:02;;;;;;;6.65;5.95;;;;;;;;;;4970078;28;20034;-83
2023/09/23 01:04:28;;;;;;;7.60;6.80;;;;;;;;;;4990627;28;20031;-85
2023/09/23 01:06:56;;;;;;;7.32;6.00;;;;;;;;;;4989518;28;20034;-84
2023/09/23 01:09:23;;;;;;;7.97;6.63;;;;;;;;;;4988195;28;20394;-81
2023/09/23 01:11:52;;;;;;;7.50;6.50;;;;;;;;;;4985998;28;20035;-84
2023/09/23 01:14:21;;;;;;;8.32;6.60;;;;;;;;;;4969600;28;20034;-84
2023/09/23 01:16:51;;;;;;;7.40;6.45;;;;;;;;;;4969260;28;20459;-77
2023/09/23 01:19:17;;;;;;;8.30;6.70;;;;;;;;;;4993103;28;20391;-76
2023/09/23 01:21:42;;;;;;;8.60;7.70;;;;;;;;;;4991465;28;20068;-76
2023/09/23 01:24:08;;;;;;;8.60;7.70;;;;;;;;;;4987311;28;20513;-76
2023/09/23 01:26:34;;;;;;;11.63;7.80;;;;;;;;;;4989721;28;20497;-77
2023/09/23 01:29:00;;;;;;;8.88;6.88;;;;;;;;;;4986958;28;20517;-76
2023/09/23 01:31:29;;;;;;;8.95;7.90;;;;;;;;;;4986625;28;20034;-76
2023/09/23 01:33:55;;;;;;;8.48;7.32;;;;;;;;;;4966768;28;20030;-76
2023/09/23 01:36:20;;;;;;;8.40;7.07;;;;;;;;;;4984167;28;20030;-82
2023/09/23 01:38:48;;;;;;;8.52;7.53;;;;;;;;;;4970732;28;22044;-82
2023/09/23 01:41:15;;;;;;;8.95;7.30;;;;;;;;;;4969142;28;20019;-83
2023/09/23 01:43:40;;;;;;;8.70;7.80;;;;;;;;;;4966844;28;20170;-82
2023/09/23 01:46:06;;;;;;;9.02;7.40;;;;;;;;;;4984535;28;20116;-81
2023/09/23 01:48:32;;;;;;;9.85;7.55;;;;;;;;;;4967970;28;20038;-82
2023/09/23 01:51:00;;;;;;;8.45;7.35;;;;;;;;;;4983236;28;20035;-82
2023/09/23 01:53:27;;;;;;;9.00;7.55;;;;;;;;;;4988091;28;20438;-82
2023/09/23 01:55:53;;;;;;;7.93;7.07;;;;;;;;;;4964534;28;20026;-80
2023/09/23 01:58:22;;;;;;;12.10;7.65;;;;;;;;;;4968329;28;20026;-82
2023/09/23 02:00:47;;;;;;;8.20;6.97;;;;;;;;;;4986859;28;20074;-82
2023/09/23 02:03:14;;;;;;;7.53;6.70;;;;;;;;;;4986565;28;20132;-82
2023/09/23 02:05:40;;;;;;;7.22;6.50;;;;;;;;;;4979696;28;20061;-80
2023/09/23 02:08:05;;;;;;;9.02;5.97;;;;;;;;;;4966184;28;20030;-77
2023/09/23 02:10:31;;;;;;;8.55;7.10;;;;;;;;;;4979238;28;20041;-76
2023/09/23 02:12:57;;;;;;;8.52;7.00;;;;;;;;;;4983600;28;20116;-84
2023/09/23 02:15:22;;;;;;;7.10;5.90;;;;;;;;;;4968096;28;20030;-81
2023/09/23 02:17:49;;;;;;;7.95;6.28;;;;;;;;;;4977248;28;20023;-80
2023/09/23 02:20:19;;;;;;;7.72;6.75;;;;;;;;;;4965340;28;20410;-81
2023/09/23 02:22:49;;;;;;;7.57;6.32;;;;;;;;;;4984244;28;20494;-80
2023/09/23 02:25:15;;;;;;;7.47;6.07;;;;;;;;;;4986942;28;20486;-83
2023/09/23 02:27:41;;;;;;;7.43;5.60;;;;;;;;;;4979782;28;20023;-82
2023/09/23 02:30:10;;;;;;;8.35;6.13;;;;;;;;;;4985078;28;20047;-82
2023/09/23 02:32:40;;;;;;;9.18;5.68;;;;;;;;;;4982273;28;20479;-83
2023/09/23 02:35:10;;;;;;;6.70;5.00;;;;;;;;;;4983008;28;20026;-82
2023/09/23 02:37:36;;;;;;;6.85;4.97;;;;;;;;;;4988751;28;20073;-82
2023/09/23 02:40:05;;;;;;;7.68;5.60;;;;;;;;;;4987403;28;20558;-82
2023/09/23 02:42:31;;;;;;;9.52;5.05;;;;;;;;;;4986472;28;20030;-83
2023/09/23 02:44:56;;;;;;;11.32;5.90;;;;;;;;;;4969518;28;20363;-82
2023/09/23 02:47:22;;;;;;;8.35;5.57;;;;;;;;;;4986345;28;20489;-82
2023/09/23 02:49:47;;;;;;;9.60;5.80;;;;;;;;;;4983690;28;20041;-85
2023/09/23 02:52:13;;;;;;;7.80;5.53;;;;;;;;;;4960785;28;20037;-85
2023/09/23 02:54:39;;;;;;;6.95;4.55;;;;;;;;;;4985346;28;20498;-85
2023/09/23 02:57:04;;;;;;;15.63;5.53;;;;;;;;;;4979963;28;20062;-82
2023/09/23 02:59:31;;;;;;;7.55;5.00;;;;;;;;;;4964104;28;20053;-82
2023/09/23 03:01:58;;;;;;;7.10;4.80;;;;;;;;;;4982800;28;20058;-82
2023/09/23 03:04:23;;;;;;;6.35;4.60;;;;;;;;;;4967511;28;20117;-82
2023/09/23 03:07:00;;;;;;;7.85;4.80;;;;;;;;;;4981662;28;20117;-78
2023/09/23 03:09:30;;;;;;;7.03;4.88;;;;;;;;;;4982485;28;20030;-79
2023/09/23 03:11:56;;;;;;;9.38;5.00;;;;;;;;;;4984959;28;20422;-76
2023/09/23 03:14:28;;;;;;;7.57;4.57;;;;;;;;;;4967535;28;20031;-76
2023/09/23 03:16:57;;;;;;;7.10;4.93;;;;;;;;;;4984615;28;20026;-76
2023/09/23 03:19:26;;;;;;;9.27;5.35;;;;;;;;;;4978416;28;20030;-76
2023/09/23 03:21:55;;;;;;;7.13;4.82;;;;;;;;;;4979894;28;20030;-77
2023/09/23 03:24:22;;;;;;;7.97;5.78;;;;;;;;;;4981269;28;20131;-77
2023/09/23 03:26:47;;;;;;;8.15;4.95;;;;;;;;;;4975447;28;20026;-77
2023/09/23 03:29:13;;;;;;;6.43;4.97;;;;;;;;;;4964155;28;20399;-76
2023/09/23 03:31:39;;;;;;;8.52;5.10;;;;;;;;;;4965445;28;20034;-76
2023/09/23 03:34:05;;;;;;;8.05;5.07;;;;;;;;;;4988506;28;20026;-76
2023/09/23 03:36:31;;;;;;;7.22;5.00;;;;;;;;;;4987272;28;20033;-76
2023/09/23 03:39:00;;;;;;;7.32;4.82;;;;;;;;;;4986615;28;20390;-76
2023/09/23 03:41:28;;;;;;;6.95;4.07;;;;;;;;;;4967599;28;20019;-76
2023/09/23 03:43:54;;;;;;;9.10;5.07;;;;;;;;;;4985389;28;20378;-78
2023/09/23 03:46:19;;;;;;;7.82;4.70;;;;;;;;;;4982543;28;20031;-77
2023/09/23 03:48:44;;;;;;;7.05;4.82;;;;;;;;;;4964781;28;20050;-76
2023/09/23 03:51:10;;;;;;;9.00;4.53;;;;;;;;;;4964043;28;20071;-77
2023/09/23 03:53:36;;;;;;;6.32;4.40;;;;;;;;;;4966252;28;20027;-77
2023/09/23 03:56:01;;;;;;;6.05;3.97;;;;;;;;;;4978702;28;20120;-76
2023/09/23 03:58:27;;;;;;;7.45;4.57;;;;;;;;;;4967948;28;21163;-77
2023/09/23 04:00:56;;;;;;;9.23;5.20;;;;;;;;;;4991001;28;20033;-78
2023/09/23 04:03:24;;;;;;;8.82;4.50;;;;;;;;;;4963798;28;20040;-77
2023/09/23 04:06:00;;;;;;;8.15;4.63;;;;;;;;;;4965413;28;20026;-80
2023/09/23 04:08:26;;;;;;;7.85;4.60;;;;;;;;;;4985164;28;20084;-83
2023/09/23 04:10:52;;;;;;;7.75;4.05;;;;;;;;;;4982055;28;20029;-82
2023/09/23 04:13:17;;;;;;;6.28;4.18;;;;;;;;;;4982121;28;20038;-79
2023/09/23 04:15:43;;;;;;;5.95;4.10;;;;;;;;;;4964020;28;20037;-77
2023/09/23 04:18:09;;;;;;;8.20;4.22;;;;;;;;;;4967161;28;20030;-81
2023/09/23 04:20:35;;;;;;;6.50;3.75;;;;;;;;;;4983032;28;20085;-82
2023/09/23 04:23:02;;;;;;;8.30;3.70;;;;;;;;;;4984185;28;20027;-82
2023/09/23 04:25:27;;;;;;;5.57;3.70;;;;;;;;;;4981586;28;20030;-85
2023/09/23 04:27:53;;;;;;;5.85;3.80;;;;;;;;;;4965418;28;20034;-78
2023/09/23 04:30:18;;;;;;;6.00;3.47;;;;;;;;;;4984962;28;20093;-77
2023/09/23 04:32:43;;;;;;;5.50;3.40;;;;;;;;;;4969174;28;20022;-77
2023/09/23 04:35:15;;;;;;;7.85;3.60;;;;;;;;;;4985773;28;20035;-77
2023/09/23 04:37:40;;;;;;;5.65;3.45;;;;;;;;;;4986141;28;20034;-77
2023/09/23 04:40:11;;;;;;;6.38;2.80;;;;;;;;;;4988976;28;20045;-77
2023/09/23 04:42:41;;;;;;;4.88;2.90;;;;;;;;;;4982959;28;20121;-76
2023/09/23 04:45:08;;;;;;;7.53;3.60;;;;;;;;;;4967205;28;20068;-78
2023/09/23 04:47:35;;;;;;;6.15;3.10;;;;;;;;;;4988045;28;20106;-76
2023/09/23 04:50:04;;;;;;;7.13;3.70;;;;;;;;;;4987652;28;20034;-79
2023/09/23 04:52:31;;;;;;;6.53;3.10;;;;;;;;;;4988183;28;20478;-76
2023/09/23 04:54:56;;;;;;;5.47;2.78;;;;;;;;;;4967397;28;21723;-76
2023/09/23 04:57:22;;;;;;;6.50;3.30;;;;;;;;;;4983553;28;20049;-78
2023/09/23 04:59:48;;;;;;;4.68;3.00;;;;;;;;;;4985002;28;20034;-76
2023/09/23 05:02:13;;;;;;;4.60;3.20;;;;;;;;;;4964802;28;20034;-78
2023/09/23 05:04:39;;;;;;;4.63;2.45;;;;;;;;;;4966060;28;20022;-78
2023/09/23 05:07:05;;;;;;;4.85;3.00;;;;;;;;;;4980539;28;20096;-76
2023/09/23 05:09:30;;;;;;;5.00;2.97;;;;;;;;;;4987966;28;20118;-77
2023/09/23 05:11:56;;;;;;;5.13;2.55;;;;;;;;;;4962374;28;20030;-77
2023/09/23 05:14:21;;;;;;;6.75;3.00;;;;;;;;;;4984068;28;20030;-78
2023/09/23 05:16:48;;;;;;;4.95;3.00;;;;;;;;;;4972494;28;20034;-78
2023/09/23 05:19:14;;;;;;;5.50;3.20;;;;;;;;;;4989617;28;20038;-76
2023/09/23 05:21:40;;;;;;;5.20;3.03;;;;;;;;;;4987714;28;20026;-76
2023/09/23 05:24:09;;;;;;;5.78;2.58;;;;;;;;;;4985176;28;20077;-76
2023/09/23 05:26:35;;;;;;;8.48;3.53;;;;;;;;;;4983390;28;20426;-76
2023/09/23 05:29:00;;;;;;;4.20;2.30;;;;;;;;;;4971525;28;20077;-76
2023/09/23 05:31:25;;;;;;;7.63;3.08;;;;;;;;;;4967321;28;20530;-76
2023/09/23 05:33:50;;;;;;;7.07;2.65;;;;;;;;;;4982425;28;20057;-76
2023/09/23 05:36:17;;;;;;;4.75;2.67;;;;;;;;;;4987748;28;20336;-76
2023/09/23 05:38:42;;;;;;;5.47;2.70;;;;;;;;;;4969760;28;20042;-85
2023/09/23 05:41:08;;;;;;;7.03;2.63;;;;;;;;;;4961263;28;20030;-85
2023/09/23 05:43:33;;;;;;;5.97;2.78;;;;;;;;;;4967235;28;20037;-82
2023/09/23 05:46:04;;;;;;;6.32;2.90;;;;;;;;;;4983230;28;20022;-83
2023/09/23 05:48:29;;;;;;;4.55;2.20;;;;;;;;;;4986643;28;20048;-85
2023/09/23 05:51:05;;;;;;;5.07;2.75;;;;;;;;;;4972022;28;20455;-84
2023/09/23 05:53:32;;;;;;;6.47;2.70;;;;;;;;;;4969779;28;20113;-84
2023/09/23 05:55:59;;;;;;;6.55;2.92;;;;;;;;;;4989060;28;20031;-85
2023/09/23 05:58:24;;;;;;;4.95;2.67;;;;;;;;;;4962799;28;20113;-82
2023/09/23 06:00:50;;;;;;;5.22;2.63;;;;;;;;;;4981976;28;20453;-85
2023/09/23 06:03:17;;;;;;;6.07;2.42;;;;;;;;;;4979602;28;20604;-85
2023/09/23 06:05:46;;;;;;;5.13;2.65;;;;;;;;;;4980947;28;20057;-83
2023/09/23 06:08:12;;;;;;;5.10;2.63;;;;;;;;;;4962130;28;20022;-84
2023/09/23 06:10:38;;;;;;;4.78;2.40;;;;;;;;;;4978792;28;20057;-85
2023/09/23 06:13:07;;;;;;;3.58;2.45;;;;;;;;;;4980228;28;20023;-85
2023/09/23 06:15:33;;;;;;;4.38;2.80;;;;;;;;;;4979699;28;20048;-85
2023/09/23 06:17:59;;;;;;;6.38;3.03;;;;;;;;;;4980503;28;20034;-78
2023/09/23 06:20:24;;;;;;;4.85;2.83;;;;;;;;;;4965487;28;20049;-76
2023/09/23 06:22:49;;;;;;;5.45;2.53;;;;;;;;;;4971705;28;20475;-77
2023/09/23 06:25:15;;;;;;;5.28;2.83;;;;;;;;;;4967443;28;20038;-85
2023/09/23 06:27:42;;;;;;;4.40;2.80;;;;;;;;;;4979466;28;20022;-82
2023/09/23 06:30:08;;;;;;;4.10;2.67;;;;;;;;;;4984096;28;20093;-84
2023/09/23 06:32:33;;;;;;;5.75;2.60;;;;;;;;;;4967087;28;20038;-84
2023/09/23 06:34:58;;;;;;;4.82;2.60;;;;;;;;;;4975917;28;20109;-76
2023/09/23 06:37:24;;;;;;;4.88;2.25;;;;;;;;;;4971870;28;20112;-76
2023/09/23 06:39:49;;;;;;;4.25;2.55;;;;;;;;;;4986096;28;20069;-76
2023/09/23 06:42:15;;;;;;;6.90;3.03;;;;;;;;;;4965505;28;20113;-76
2023/09/23 06:44:42;;;;;;;6.88;2.80;;;;;;;;;;4987539;28;20134;-76
2023/09/23 06:47:08;;;;;;;6.32;2.80;;;;;;;;;;4985126;28;20022;-76
2023/09/23 06:49:33;;;;;;;7.63;2.72;;;;;;;;;;4975585;28;20420;-76
2023/09/23 06:51:58;;;;;;;4.40;2.75;;;;;;;;;;4964628;28;20442;-76
2023/09/23 06:54:24;;;;;;;5.15;2.53;;;;;;;;;;4982044;28;20081;-80
2023/09/23 06:56:53;;;;;;;6.15;2.70;;;;;;;;;;4966421;28;20426;-78
2023/09/23 06:59:18;;;;;;;5.05;2.53;;;;;;;;;;4983233;28;20030;-77
2023/09/23 07:01:43;;;;;;;9.38;3.53;;;;;;;;;;4985301;28;20026;-77
2023/09/23 07:04:09;;;;;;;7.50;2.83;;;;;;;;;;4985223;28;20066;-76
2023/09/23 07:06:34;;;;;;;4.97;2.63;;;;;;;;;;4960501;28;20038;-78
2023/09/23 07:08:59;;;;;;;6.00;2.70;;;;;;;;;;4961361;28;20038;-76
2023/09/23 07:11:25;;;;;;;5.45;2.67;;;;;;;;;;4967003;28;20033;-77
2023/09/23 07:13:50;;;;;;;7.32;3.22;;;;;;;;;;4963970;28;20030;-77
2023/09/23 07:16:15;;;;;;;6.85;3.30;;;;;;;;;;4986274;28;20113;-76
2023/09/23 07:18:41;;;;;;;6.95;3.25;;;;;;;;;;4970682;28;20509;-77
2023/09/23 07:21:07;;;;;;;6.63;3.03;;;;;;;;;;4965621;28;20026;-77
2023/09/23 07:23:32;;;;;;;10.38;3.75;;;;;;;;;;4986955;28;20085;-77
2023/09/23 07:25:59;;;;;;;8.27;3.50;;;;;;;;;;4974027;28;20081;-77
2023/09/23 07:28:25;;;;;;;5.05;3.08;;;;;;;;;;4968344;28;20045;-77
2023/09/23 07:30:50;;;;;;;5.13;3.80;;;;;;;;;;4962061;28;20034;-78
2023/09/23 07:33:16;;;;;;;5.93;3.38;;;;;;;;;;4972842;28;20030;-78
2023/09/23 07:35:43;;;;;;;8.20;4.15;;;;;;;;;;4932006;28;20072;-78
2023/09/23 07:38:08;;;;;;;5.97;4.10;;;;;;;;;;4963534;28;20088;-79
2023/09/23 07:40:39;;;;;;;6.70;4.05;;;;;;;;;;4977359;28;20110;-79
2023/09/23 07:43:07;;;;;;;5.45;3.50;;;;;;;;;;4970991;28;20030;-81
2023/09/23 07:45:33;;;;;;;6.40;3.90;;;;;;;;;;4972356;28;20654;-79
2023/09/23 07:47:58;;;;;;;7.60;4.40;;;;;;;;;;4975506;28;20019;-79
2023/09/23 07:50:24;;;;;;;6.22;4.18;;;;;;;;;;4960895;28;20058;-79
2023/09/23 07:52:49;;;;;;;6.97;4.40;;;;;;;;;;4952369;28;20045;-79
2023/09/23 07:55:15;;;;;;;6.90;4.30;;;;;;;;;;4958551;28;20034;-80
2023/09/23 07:57:40;;;;;;;10.07;4.00;;;;;;;;;;4959367;28;20038;-79
2023/09/23 08:00:09;;;;;;;8.07;3.95;;;;;;;;;;4945979;28;20129;-79
2023/09/23 08:02:35;;;;;;;5.85;3.90;;;;;;;;;;4958025;28;20404;-80
2023/09/23 08:05:04;;;;;;;5.43;3.15;;;;;;;;;;4951023;28;20082;-79
2023/09/23 08:07:30;;;;;;;7.28;3.28;;;;;;;;;;4971203;28;20038;-78
2023/09/23 08:09:56;;;;;;;4.82;3.38;;;;;;;;;;4977385;28;20034;-79
2023/09/23 08:12:22;;;;;;;5.82;3.65;;;;;;;;;;4956812;28;20026;-78
2023/09/23 08:14:47;;;;;;;6.95;3.65;;;;;;;;;;4956208;28;20093;-80
2023/09/23 08:17:14;;;;;;;8.02;3.30;;;;;;;;;;4975672;28;20038;-82
2023/09/23 08:19:40;;;;;;;6.43;3.40;;;;;;;;;;4958810;28;20603;-82
2023/09/23 08:22:05;;;;;;;6.80;3.53;;;;;;;;;;4964003;28;20025;-83
2023/09/23 08:24:30;;;;;;;8.60;3.50;;;;;;;;;;4959014;28;20037;-82
2023/09/23 08:26:56;;;;;;;5.65;3.40;;;;;;;;;;4938452;28;20061;-81
2023/09/23 08:29:23;;;;;;;8.15;3.45;;;;;;;;;;4972080;28;20379;-82
2023/09/23 08:31:49;;;;;;;7.32;3.97;;;;;;;;;;4957686;28;20124;-81
2023/09/23 08:34:14;;;;;;;8.32;3.50;;;;;;;;;;4975866;28;20026;-82
2023/09/23 08:36:39;;;;;;;7.55;3.38;;;;;;;;;;4954722;28;20434;-81
2023/09/23 08:39:09;;;;;;;5.65;3.72;;;;;;;;;;4974372;28;20240;-83
2023/09/23 08:41:35;;;;;;;6.75;3.22;;;;;;;;;;4977736;28;20027;-82
2023/09/23 08:44:05;;;;;;;7.47;3.30;;;;;;;;;;4978770;28;20121;-82
2023/09/23 08:46:32;;;;;;;7.03;3.10;;;;;;;;;;4974134;28;20248;-81
2023/09/23 08:49:01;;;;;;;8.70;3.63;;;;;;;;;;4955197;28;20034;-82
2023/09/23 08:51:29;;;;;;;6.25;2.80;;;;;;;;;;4986428;28;20381;-84
2023/09/23 08:53:55;;;;;;;6.68;3.13;;;;;;;;;;4980039;28;20030;-82
2023/09/23 08:56:21;;;;;;;6.80;3.10;;;;;;;;;;4959428;28;20556;-83
2023/09/23 08:58:49;;;;;;;6.93;2.95;;;;;;;;;;4976858;28;20041;-82
2023/09/23 09:01:17;;;;;;;7.15;3.38;;;;;;;;;;4983829;28;20022;-82
2023/09/23 09:03:43;;;;;;;6.85;3.53;;;;;;;;;;4981921;28;20747;-82
2023/09/23 09:06:18;;;;;;;6.63;3.47;;;;;;;;;;4975189;28;20442;-83
2023/09/23 09:08:44;;;;;;;6.25;3.40;;;;;;;;;;4980748;28;20049;-83
2023/09/23 09:11:10;;;;;;;6.95;3.22;;;;;;;;;;4983125;28;20023;-83
2023/09/23 09:13:36;;;;;;;7.93;3.22;;;;;;;;;;4963482;28;20034;-84
2023/09/23 09:16:06;;;;;;;8.23;3.13;;;;;;;;;;4981715;28;20447;-83
2023/09/23 09:18:31;;;;;;;6.88;3.28;;;;;;;;;;4979636;28;20045;-83
2023/09/23 09:20:57;;;;;;;6.70;3.33;;;;;;;;;;4965309;28;20026;-83
2023/09/23 09:23:33;;;;;;;7.93;3.35;;;;;;;;;;4984110;28;20080;-81
2023/09/23 09:25:59;;;;;;;9.50;3.30;;;;;;;;;;4960091;28;20027;-81
2023/09/23 09:28:25;;;;;;;9.07;3.75;;;;;;;;;;4958167;28;20026;-82
2023/09/23 09:30:59;;;;;;;7.55;3.50;;;;;;;;;;4962007;28;20038;-83
2023/09/23 09:33:27;;;;;;;7.47;4.05;;;;;;;;;;4977663;28;20081;-83
2023/09/23 09:35:55;;;;;;;5.88;3.30;;;;;;;;;;4957782;28;20038;-83
2023/09/23 09:38:24;;;;;;;7.88;4.18;;;;;;;;;;4954668;28;20038;-79
2023/09/23 09:40:50;;;;;;;9.32;4.10;;;;;;;;;;4958205;28;20030;-80
2023/09/23 09:43:20;;;;;;;9.07;4.43;;;;;;;;;;4974127;28;20026;-81
2023/09/23 09:45:46;;;;;;;8.75;5.07;;;;;;;;;;4958541;28;20410;-78
2023/09/23 09:48:15;;;;;;;9.23;4.25;;;;;;;;;;4972527;28;20031;-78
2023/09/23 09:50:43;;;;;;;7.95;4.05;;;;;;;;;;4976364;28;20550;-81
2023/09/23 09:53:08;;;;;;;6.03;3.50;;;;;;;;;;4979274;28;20054;-79
2023/09/23 09:55:34;;;;;;;6.32;3.83;;;;;;;;;;4977777;28;20109;-80
2023/09/23 09:58:01;;;;;;;5.88;3.63;;;;;;;;;;4954541;28;20119;-79
2023/09/23 10:00:35;;;;;;;7.63;4.03;;;;;;;;;;4973476;28;20026;-79
2023/09/23 10:03:06;;;;;;;6.40;3.50;;;;;;;;;;4975827;28;20026;-78
2023/09/23 10:05:41;;;;;;;7.57;3.50;;;;;;;;;;4976674;28;20030;-78
2023/09/23 10:08:15;;;;;;;8.32;3.85;;;;;;;;;;4964962;28;20981;-78
2023/09/23 10:10:47;;;;;;;7.22;3.40;;;;;;;;;;4957594;28;20027;-80
2023/09/23 10:13:24;;;;;;;6.28;3.05;;;;;;;;;;4957317;28;20042;-79
2023/09/23 10:15:50;;;;;;;7.40;3.08;;;;;;;;;;4975990;28;20026;-79
2023/09/23 10:18:20;;;;;;;7.38;3.15;;;;;;;;;;4959962;28;20081;-79
2023/09/23 10:20:56;;;;;;;8.30;3.58;;;;;;;;;;4954556;28;20081;-79
2023/09/23 10:23:22;;;;;;;8.00;3.40;;;;;;;;;;4963736;28;20414;-79
2023/09/23 10:25:52;;;;;;;8.98;4.00;;;;;;;;;;4957309;28;20088;-80
2023/09/23 10:28:22;;;;;;;7.75;3.58;;;;;;;;;;4976384;28;20406;-79
2023/09/23 10:30:57;;;;;;;7.18;4.10;;;;;;;;;;4953280;28;20058;-79
2023/09/23 10:33:26;;;;;;;8.82;4.07;;;;;;;;;;4957064;28;20768;-79
2023/09/23 10:35:52;;;;;;;7.15;3.65;;;;;;;;;;4950352;28;20525;-80
2023/09/23 10:38:21;;;;;;;7.55;3.38;;;;;;;;;;4982751;28;20505;-79
2023/09/23 10:40:54;;;;;;;7.10;3.67;;;;;;;;;;4975077;28;20049;-79
2023/09/23 10:43:21;;;;;;;;;;;;;;;;;;4959228;28;20488;-82
2023/09/23 10:45:57;;;;;;;6.22;3.60;;;;;;;;;;4972644;28;19917;-81
2023/09/23 10:48:23;;;;;;;7.00;3.83;;;;;;;;;;4964438;28;20027;-83
2023/09/23 10:50:51;;;;;;;6.82;4.30;;;;;;;;;;4948791;28;20037;-85
2023/09/23 10:53:18;;;;;;;9.40;4.57;;;;;;;;;;4947773;28;20085;-85
2023/09/23 10:55:43;;;;;;;7.75;4.22;;;;;;;;;;4956412;28;20069;-86
2023/09/23 10:58:09;;;;;;;6.13;3.88;;;;;;;;;;4958009;28;20069;-83
2023/09/23 11:00:36;;;;;;;8.27;4.70;;;;;;;;;;4954291;28;20418;-83
2023/09/23 11:03:09;;;;;;;8.45;4.55;;;;;;;;;;4961461;28;20029;-84
2023/09/23 11:05:39;;;;;;;6.78;4.00;;;;;;;;;;4975674;28;20030;-81
2023/09/23 11:08:06;;;;;;;8.30;4.40;;;;;;;;;;4967803;28;20040;-85
2023/09/23 11:10:32;;;;;;;7.05;4.13;;;;;;;;;;4944079;28;20030;-84
2023/09/23 11:12:58;;;;;;;7.93;4.45;;;;;;;;;;4966124;28;20026;-85
2023/09/23 11:15:23;;;;;;;8.25;3.60;;;;;;;;;;4975846;28;20038;-82
2023/09/23 11:17:53;;;;;;;7.38;2.85;;;;;;;;;;4952812;28;20036;-83
2023/09/23 11:20:26;;;;;;;7.15;2.95;;;;;;;;;;4979689;28;20436;-84
2023/09/23 11:23:03;;;;;;;6.75;2.45;;;;;;;;;;4973931;28;20103;-84
2023/09/23 11:25:30;;;;;;;3.78;2.10;;;;;;;;;;4946378;28;20038;-84
2023/09/23 11:28:02;;;;;;;7.75;2.17;;;;;;;;;;4955645;28;20041;-84
2023/09/23 11:30:28;;;;;;;5.17;2.73;;;;;;;;;;4954672;28;20137;-84
2023/09/23 11:32:53;;;;;;;5.95;2.20;;;;;;;;;;4965656;28;20077;-85
2023/09/23 11:35:19;;;;;;;6.22;2.40;;;;;;;;;;4972899;28;20339;-83
2023/09/23 11:37:46;;;;;;;6.68;3.45;;;;;;;;;;4953283;28;20041;-84
2023/09/23 11:40:12;;;;;;;7.82;3.17;;;;;;;;;;4947011;28;20125;-80
2023/09/23 11:42:38;;;;;;;8.30;3.03;;;;;;;;;;4969431;28;20026;-82
2023/09/23 11:45:04;;;;;;;7.07;2.80;;;;;;;;;;4977373;28;20037;-85
2023/09/23 11:47:29;;;;;;;6.13;3.33;;;;;;;;;;4971586;28;20046;-84
2023/09/23 11:49:54;;;;;;;7.95;3.90;;;;;;;;;;4970794;28;20041;-85
2023/09/23 11:52:20;;;;;;;6.22;3.55;;;;;;;;;;4957611;28;20031;-82
2023/09/23 11:54:45;;;;;;;7.00;3.67;;;;;;;;;;4973959;28;20027;-84
2023/09/23 11:57:12;;;;;;;7.90;3.60;;;;;;;;;;4955409;28;20418;-79
2023/09/23 11:59:38;;;;;;;4.38;2.80;;;;;;;;;;4947844;28;20030;-80
2023/09/23 12:02:03;;;;;;;4.50;2.83;;;;;;;;;;4979657;28;20038;-80
2023/09/23 12:04:29;;;;;;;5.35;2.75;;;;;;;;;;4974279;28;20098;-79
2023/09/23 12:06:54;;;;;;;4.97;2.22;;;;;;;;;;4973689;28;20445;-79
2023/09/23 12:09:20;;;;;;;5.80;2.00;;;;;;;;;;4973739;28;20072;-80
2023/09/23 12:11:45;;;;;;;6.53;1.90;;;;;;;;;;4960288;28;20133;-79
2023/09/23 12:14:10;;;;;;;5.45;2.15;;;;;;;;;;4955202;28;22351;-80
2023/09/23 12:16:36;;;;;;;6.90;2.17;;;;;;;;;;4973270;28;20045;-79
2023/09/23 12:19:02;;;;;;;8.18;2.38;;;;;;;;;;4968991;28;20026;-81
2023/09/23 12:21:27;;;;;;;6.63;2.15;;;;;;;;;;4956155;28;20278;-79
2023/09/23 12:23:59;;;;;;;6.38;1.90;;;;;;;;;;4976167;28;20110;-79
2023/09/23 12:26:25;;;;;;;4.07;2.10;;;;;;;;;;4959427;28;20065;-79
2023/09/23 12:28:50;;;;;;;4.05;1.90;;;;;;;;;;4977670;28;20031;-81
2023/09/23 12:31:15;;;;;;;4.60;1.95;;;;;;;;;;4961595;28;20033;-80
2023/09/23 12:33:41;;;;;;;5.55;1.83;;;;;;;;;;4966764;28;20113;-78
2023/09/23 12:36:07;;;;;;;7.15;1.90;;;;;;;;;;4962841;28;20061;-80
2023/09/23 12:38:32;;;;;;;3.03;1.48;;;;;;;;;;4961617;28;20505;-79
2023/09/23 12:40:58;;;;;;;3.45;1.55;;;;;;;;;;4977531;28;20018;-79
2023/09/23 12:43:23;;;;;;;3.67;1.70;;;;;;;;;;4957454;28;20038;-79
2023/09/23 12:45:48;;;;;;;3.80;1.50;;;;;;;;;;4960313;28;20026;-79
2023/09/23 12:48:14;;;;;;;3.13;1.50;;;;;;;;;;4962461;28;20031;-81
2023/09/23 12:50:39;;;;;;;4.45;1.73;;;;;;;;;;4976100;28;20025;-80
2023/09/23 12:53:05;;;;;;;4.60;1.65;;;;;;;;;;4958421;28;20027;-79
2023/09/23 12:55:31;;;;;;;2.85;1.38;;;;;;;;;;4960989;28;20101;-80
2023/09/23 12:57:56;;;;;;;4.90;1.70;;;;;;;;;;4973643;28;20033;-81
2023/09/23 13:00:22;;;;;;;3.00;1.40;;;;;;;;;;4960894;28;20093;-80
2023/09/23 13:02:49;;;;;;;2.70;1.50;;;;;;;;;;4956803;28;20192;-81
2023/09/23 13:05:15;;;;;;;3.00;1.23;;;;;;;;;;4958629;28;20099;-81
2023/09/23 13:07:41;;;;;;;5.22;1.30;;;;;;;;;;4966655;28;20038;-82
2023/09/23 13:10:09;;;;;;;2.55;1.48;;;;;;;;;;4970058;28;20425;-82
2023/09/23 13:12:34;;;;;;;3.55;1.60;;;;;;;;;;4951206;28;20441;-83
2023/09/23 13:15:00;;;;;;;7.28;1.75;;;;;;;;;;4959198;28;20033;-83
2023/09/23 13:17:25;;;;;;;4.95;1.70;;;;;;;;;;4976477;28;20038;-84
2023/09/23 13:19:51;;;;;;;2.42;1.23;;;;;;;;;;4977705;28;20062;-82
2023/09/23 13:22:16;;;;;;;4.45;2.30;;;;;;;;;;4980339;28;20397;-85
2023/09/23 13:24:43;;;;;;;4.65;2.10;;;;;;;;;;4946402;28;20027;-84
2023/09/23 13:27:08;;;;;;;5.78;2.33;;;;;;;;;;4958734;28;20845;-83
2023/09/23 13:29:33;;;;;;;4.95;1.80;;;;;;;;;;4961882;28;20034;-83
2023/09/23 13:31:59;;;;;;;3.85;1.98;;;;;;;;;;4951094;28;20030;-85
2023/09/23 13:34:24;;;;;;;4.40;2.10;;;;;;;;;;4961931;28;20030;-85
2023/09/23 13:36:50;;;;;;;4.25;2.08;;;;;;;;;;4977379;28;20113;-84
2023/09/23 13:39:15;;;;;;;4.15;2.30;;;;;;;;;;4954933;28;20036;-82
2023/09/23 13:41:40;;;;;;;4.55;2.05;;;;;;;;;;4971209;28;20490;-85
2023/09/23 13:44:07;;;;;;;5.40;2.22;;;;;;;;;;4956544;28;20030;-85
2023/09/23 13:46:33;;;;;;;5.18;2.35;;;;;;;;;;4974434;28;20090;-84
2023/09/23 13:48:59;;;;;;;6.88;2.40;;;;;;;;;;4957911;28;20084;-84
2023/09/23 13:51:24;;;;;;;5.32;2.42;;;;;;;;;;4957826;28;20022;-85
2023/09/23 13:53:49;;;;;;;5.18;2.58;;;;;;;;;;4955511;28;20080;-83
2023/09/23 13:56:15;;;;;;;5.95;2.42;;;;;;;;;;4968362;28;20674;-82
2023/09/23 13:58:40;;;;;;;5.10;2.40;;;;;;;;;;4963105;28;20027;-82
2023/09/23 14:01:07;;;;;;;7.22;2.90;;;;;;;;;;4971390;28;20034;-86
2023/09/23 14:03:34;;;;;;;6.32;2.53;;;;;;;;;;4957651;28;20037;-86
2023/09/23 14:05:59;;;;;;;6.43;2.78;;;;;;;;;;4961615;28;20065;-84
2023/09/23 14:08:25;;;;;;;5.47;2.80;;;;;;;;;;4964562;28;20064;-85
2023/09/23 14:10:52;;;;;;;6.93;2.75;;;;;;;;;;4961994;28;20553;-86
2023/09/23 14:13:17;;;;;;;6.05;2.30;;;;;;;;;;4976817;28;20494;-85
2023/09/23 14:15:43;;;;;;;3.15;2.10;;;;;;;;;;4981088;28;20069;-86
2023/09/23 14:18:08;;;;;;;4.47;2.35;;;;;;;;;;4985767;28;20036;-81
2023/09/23 14:20:33;;;;;;;4.22;2.67;;;;;;;;;;4975016;28;20030;-85
2023/09/23 14:22:59;;;;;;;5.40;2.60;;;;;;;;;;4964757;28;20126;-85
2023/09/23 14:25:24;;;;;;;2.97;1.92;;;;;;;;;;4984076;28;20506;-86
2023/09/23 14:27:50;;;;;;;4.95;2.28;;;;;;;;;;4946763;28;20085;-85
2023/09/23 14:30:15;;;;;;;6.22;2.80;;;;;;;;;;4977660;28;20035;-86
2023/09/23 14:32:41;;;;;;;3.72;2.25;;;;;;;;;;4969626;28;20562;-85
2023/09/23 14:35:06;;;;;;;5.25;2.90;;;;;;;;;;4983142;28;20678;-82
2023/09/23 14:37:33;;;;;;;5.10;2.65;;;;;;;;;;4978546;28;20109;-84
2023/09/23 14:39:58;;;;;;;5.05;2.70;;;;;;;;;;4960176;28;20379;-85